createdAt,value
2023-03-22T00:00:15.566Z,13.80
2023-03-22T00:05:40.174Z,15.40
2023-03-22T00:10:43.175Z,14.40
2023-03-22T00:15:49.326Z,14.00
2023-03-22T00:20:54.920Z,11.50
2023-03-22T00:25:58.028Z,13.10
2023-03-22T00:31:02.647Z,14.50
2023-03-22T00:36:08.923Z,13.40
2023-03-22T00:41:14.729Z,16.00
2023-03-22T00:46:20.736Z,14.50
2023-03-22T00:51:24.571Z,16.40
2023-03-22T00:56:29.142Z,16.10
2023-03-22T01:01:32.556Z,17.00
2023-03-22T01:06:35.802Z,18.60
2023-03-22T01:11:38.709Z,15.90
2023-03-22T01:16:41.887Z,18.60
2023-03-22T01:21:45.085Z,18.80
2023-03-22T01:26:48.342Z,15.40
2023-03-22T01:31:52.312Z,13.80
2023-03-22T01:36:55.375Z,17.40
2023-03-22T01:41:58.693Z,16.60
2023-03-22T01:47:01.803Z,16.30
2023-03-22T01:52:14.847Z,16.80
2023-03-22T01:57:18.676Z,15.80
2023-03-22T02:02:22.350Z,14.10
2023-03-22T02:07:28.574Z,14.90
2023-03-22T02:12:46.735Z,18.40
2023-03-22T02:18:46.064Z,18.50
2023-03-22T02:24:07.502Z,17.10
2023-03-22T02:29:23.109Z,17.90
2023-03-22T02:34:32.883Z,16.00
2023-03-22T02:39:38.945Z,16.60
2023-03-22T02:44:51.793Z,18.30
2023-03-22T02:50:36.797Z,18.90
2023-03-22T02:55:49.497Z,17.10
2023-03-22T03:00:57.637Z,15.70
2023-03-22T03:06:08.629Z,15.50
2023-03-22T03:11:11.943Z,17.40
2023-03-22T03:16:17.670Z,16.40
2023-03-22T03:21:30.384Z,14.10
2023-03-22T03:26:53.741Z,15.40
2023-03-22T03:32:04.470Z,14.10
2023-03-22T03:42:16.679Z,10.30
2023-03-22T03:47:21.114Z,14.60
2023-03-22T03:52:24.738Z,17.80
2023-03-22T03:57:27.642Z,16.10
2023-03-22T04:02:30.777Z,19.90
2023-03-22T04:07:34.377Z,17.90
2023-03-22T04:12:37.516Z,19.90
2023-03-22T04:17:40.643Z,16.70
2023-03-22T04:22:45.029Z,18.30
2023-03-22T04:27:51.298Z,18.10
2023-03-22T04:32:54.941Z,18.10
2023-03-22T04:37:59.478Z,18.10
2023-03-22T04:43:04.240Z,20.20
2023-03-22T04:48:08.107Z,18.60
2023-03-22T04:53:12.610Z,20.00
2023-03-22T04:58:16.724Z,21.30
2023-03-22T05:03:21.757Z,20.00
2023-03-22T05:08:27.145Z,22.30
2023-03-22T05:13:30.145Z,21.20
2023-03-22T05:18:33.460Z,20.40
2023-03-22T05:23:36.468Z,19.20
2023-03-22T05:28:39.573Z,19.60
2023-03-22T05:33:42.990Z,19.20
2023-03-22T05:38:46.928Z,22.00
2023-03-22T05:43:51.168Z,22.20
2023-03-22T05:48:54.167Z,21.20
2023-03-22T05:53:57.146Z,22.50
2023-03-22T05:59:00.176Z,20.30
2023-03-22T06:04:04.010Z,20.90
2023-03-22T06:09:16.976Z,22.60
2023-03-22T06:14:20.978Z,23.80
2023-03-22T06:19:25.830Z,21.20
2023-03-22T06:24:28.940Z,21.90
2023-03-22T06:29:32.325Z,24.10
2023-03-22T06:34:35.866Z,23.90
2023-03-22T06:39:38.975Z,22.00
2023-03-22T06:44:44.123Z,21.90
2023-03-22T06:49:47.236Z,21.90
2023-03-22T06:54:50.338Z,25.10
2023-03-22T06:59:53.755Z,24.60
2023-03-22T07:04:56.762Z,25.30
2023-03-22T07:09:59.870Z,24.80
2023-03-22T07:15:03.519Z,22.70
2023-03-22T07:20:07.274Z,28.00
2023-03-22T07:25:11.150Z,23.60
2023-03-22T07:30:14.461Z,22.10
2023-03-22T07:35:19.018Z,24.80
2023-03-22T07:40:23.234Z,24.50
2023-03-22T07:45:26.404Z,24.00
2023-03-22T07:50:29.539Z,28.20
2023-03-22T07:55:32.882Z,23.50
2023-03-22T08:00:35.989Z,27.20
2023-03-22T08:05:43.715Z,29.80
2023-03-22T08:10:51.357Z,31.00
2023-03-22T08:15:54.357Z,30.10
2023-03-22T08:20:59.194Z,30.60
2023-03-22T08:26:02.190Z,31.40
2023-03-22T08:31:15.119Z,34.80
2023-03-22T08:36:23.059Z,33.70
2023-03-22T08:41:26.053Z,37.40
2023-03-22T08:46:29.180Z,37.10
2023-03-22T08:51:32.367Z,31.20
2023-03-22T08:56:38.373Z,28.90
2023-03-22T09:01:41.619Z,27.20
2023-03-22T09:06:45.788Z,27.60
2023-03-22T09:11:48.895Z,27.50
2023-03-22T09:16:52.110Z,28.10
2023-03-22T09:21:55.317Z,32.10
2023-03-22T09:26:58.831Z,35.70
2023-03-22T09:32:01.943Z,36.00
2023-03-22T09:37:05.152Z,35.60
2023-03-22T09:42:24.238Z,35.10
2023-03-22T09:47:44.195Z,35.90
2023-03-22T09:52:48.758Z,37.30
2023-03-22T09:58:20.100Z,36.50
2023-03-22T10:03:54.677Z,39.70
2023-03-22T10:08:57.719Z,41.40
2023-03-22T10:14:07.995Z,36.90
2023-03-22T10:19:24.624Z,39.90
2023-03-22T10:24:34.258Z,39.00
2023-03-22T10:29:43.706Z,44.30
2023-03-22T10:34:47.518Z,38.90
2023-03-22T10:39:57.182Z,40.60
2023-03-22T10:45:07.474Z,40.50
2023-03-22T10:50:22.999Z,39.70
2023-03-22T10:55:26.625Z,39.40
2023-03-22T11:00:29.965Z,38.30
2023-03-22T11:05:33.250Z,39.20
2023-03-22T11:10:36.691Z,35.90
2023-03-22T11:15:49.090Z,36.10
2023-03-22T11:21:17.389Z,39.80
2023-03-22T11:26:27.775Z,39.80
2023-03-22T11:31:56.072Z,35.90
2023-03-22T11:37:08.477Z,39.40
2023-03-22T11:42:21.147Z,39.20
2023-03-22T11:47:30.515Z,38.10
2023-03-22T11:52:33.908Z,35.60
2023-03-22T11:57:38.134Z,33.50
2023-03-22T12:02:51.793Z,35.20
2023-03-22T12:08:18.043Z,35.40
2023-03-22T12:13:27.859Z,32.70
2023-03-22T12:18:44.812Z,34.00
2023-03-22T12:23:48.055Z,30.60
2023-03-22T12:28:56.510Z,33.60
2023-03-22T12:34:07.501Z,31.40
2023-03-22T12:39:24.318Z,35.50
2023-03-22T12:44:34.296Z,34.60
2023-03-22T12:50:00.457Z,36.60
2023-03-22T12:55:06.279Z,34.90
2023-03-22T13:00:16.130Z,34.00
2023-03-22T13:05:19.691Z,33.50
2023-03-22T13:10:32.605Z,33.60
2023-03-22T13:15:42.242Z,30.60
2023-03-22T13:21:14.787Z,32.90
2023-03-22T13:26:19.739Z,32.10
2023-03-22T13:31:38.930Z,33.30
2023-03-22T13:36:50.032Z,37.60
2023-03-22T13:42:06.111Z,38.00
2023-03-22T13:47:43.955Z,57.20
2023-03-22T13:53:14.808Z,40.90
2023-03-22T13:58:48.562Z,41.00
2023-03-22T14:03:52.145Z,37.60
2023-03-22T14:09:02.354Z,35.50
2023-03-22T14:14:13.137Z,41.50
2023-03-22T14:19:21.414Z,48.00
